TimeCST,TemperatureF,Dew PointF,Humidity,Sea Level PressureIn,VisibilityMPH,Wind Direction,Wind SpeedMPH,Gust SpeedMPH,PrecipitationIn,Events,Conditions,WindDirDegrees,DateUTC
12:56 AM,45.0,44.1,97,30.24,7.0,NNE,3.5,-,0.00,,Clear,20,2012-11-10 06:56:00
1:56 AM,43.0,43.0,100,30.23,6.0,Calm,Calm,-,0.00,,Clear,0,2012-11-10 07:56:00
2:56 AM,46.0,45.0,96,30.24,9.0,Calm,Calm,-,N/A,,Clear,0,2012-11-10 08:56:00
3:56 AM,46.0,46.0,100,30.24,9.0,NNE,3.5,-,0.00,,Clear,20,2012-11-10 09:56:00
4:56 AM,46.9,46.9,100,30.26,10.0,North,3.5,-,0.00,,Mostly Cloudy,10,2012-11-10 10:56:00
5:56 AM,48.9,48.0,97,30.27,10.0,NE,4.6,-,N/A,,Clear,40,2012-11-10 11:56:00
6:56 AM,54.0,51.1,90,30.29,10.0,NNE,3.5,-,N/A,,Clear,30,2012-11-10 12:56:00
7:56 AM,60.1,55.0,83,30.29,10.0,ENE,8.1,-,N/A,,Clear,70,2012-11-10 13:56:00
8:56 AM,64.9,55.0,70,30.31,10.0,East,9.2,-,N/A,,Partly Cloudy,90,2012-11-10 14:56:00
9:56 AM,68.0,55.0,63,30.32,10.0,ENE,10.4,-,N/A,,Partly Cloudy,70,2012-11-10 15:56:00
10:56 AM,69.1,55.9,63,30.31,10.0,East,13.8,-,N/A,,Partly Cloudy,100,2012-11-10 16:56:00
11:56 AM,70.0,55.0,59,30.28,10.0,East,15.0,19.6,N/A,,Partly Cloudy,100,2012-11-10 17:56:00
12:56 PM,70.0,55.0,59,30.26,10.0,East,13.8,-,N/A,,Partly Cloudy,100,2012-11-10 18:56:00
1:56 PM,70.0,55.9,61,30.25,10.0,East,12.7,24.2,N/A,,Scattered Clouds,90,2012-11-10 19:56:00
2:56 PM,69.1,57.0,65,30.24,10.0,East,11.5,-,N/A,,Scattered Clouds,100,2012-11-10 20:56:00
3:56 PM,68.0,57.9,70,30.24,10.0,East,9.2,-,N/A,,Scattered Clouds,80,2012-11-10 21:56:00
4:56 PM,64.9,59.0,81,30.24,10.0,ENE,9.2,-,N/A,,Mostly Cloudy,70,2012-11-10 22:56:00
5:28 PM,66.2,59.0,78,30.24,10.0,East,10.4,-,N/A,,Mostly Cloudy,80,2012-11-10 23:28:00
5:56 PM,66.0,59.0,78,30.25,10.0,East,11.5,-,N/A,,Mostly Cloudy,90,2012-11-10 23:56:00
6:14 PM,64.4,60.8,88,30.24,10.0,East,8.1,-,N/A,,Overcast,90,2012-11-11 00:14:00
6:28 PM,66.2,59.0,78,30.25,10.0,ESE,10.4,-,N/A,,Scattered Clouds,110,2012-11-11 00:28:00
6:56 PM,66.9,59.0,76,30.25,10.0,SE,12.7,-,N/A,,Clear,130,2012-11-11 00:56:00
7:56 PM,66.9,57.9,73,30.26,10.0,SE,13.8,-,N/A,,Clear,130,2012-11-11 01:56:00
8:56 PM,66.9,57.9,73,30.27,10.0,SE,15.0,-,N/A,,Clear,130,2012-11-11 02:56:00
9:56 PM,66.9,57.0,70,30.25,10.0,SE,13.8,-,N/A,,Clear,130,2012-11-11 03:56:00
10:56 PM,66.9,57.9,73,30.24,10.0,SE,16.1,-,N/A,,Clear,130,2012-11-11 04:56:00
11:56 PM,66.9,55.9,68,30.24,10.0,SE,13.8,-,N/A,,Clear,140,2012-11-11 05:56:00